East Hickory, Pennsylvania
Current Conditions -  °F | °C
As of 1:15 AM on Tuesday 21 Oct 2014 (Local Time) from KFKL Reporting Station
Overcast Overcast  
Wind Chill: 45°   Ceiling: 500
Heat Index: 48°   Visibility: 8mi
Dew Point: 45°   Wind: 7mph
Humidity: 87%   Direction: 210°SSW
Pressure: 29.84"   Gusts: NA
Location:  41.58°N, 79.4°W
Report Text: KFKL 210515Z 21006KT 8SM OVC005 09/07 A2984 RMK AO1 P0002
Loading
Personal Weather Stations






























Interactive Weather Map
Tropical Storm Tracking
New forecast layout! Learn more

10-Day Weather Forecast

Advertisements
Track Severe Weather on mobile